sensor_id;sensor_type;location;lat;lon;timestamp;temperature;humidity
15630;DHT22;7914;50.842;0.166;2024-03-08T00:01:44;4.90;100.00
15630;DHT22;7914;50.842;0.166;2024-03-08T00:04:10;4.90;100.00
15630;DHT22;7914;50.842;0.166;2024-03-08T00:06:36;4.90;100.00
15630;DHT22;7914;50.842;0.166;2024-03-08T00:09:01;4.90;100.00
15630;DHT22;7914;50.842;0.166;2024-03-08T00:11:27;4.90;100.00
15630;DHT22;7914;50.842;0.166;2024-03-08T00:13:53;4.90;100.00
15630;DHT22;7914;50.842;0.166;2024-03-08T00:16:19;4.80;100.00
15630;DHT22;7914;50.842;0.166;2024-03-08T00:18:45;4.80;100.00
15630;DHT22;7914;50.842;0.166;2024-03-08T00:21:11;4.80;100.00
15630;DHT22;7914;50.842;0.166;2024-03-08T00:23:37;4.90;100.00
15630;DHT22;7914;50.842;0.166;2024-03-08T00:26:07;4.80;100.00
15630;DHT22;7914;50.842;0.166;2024-03-08T00:28:32;4.80;100.00
15630;DHT22;7914;50.842;0.166;2024-03-08T00:31:00;4.80;100.00
15630;DHT22;7914;50.842;0.166;2024-03-08T00:33:26;4.80;100.00
15630;DHT22;7914;50.842;0.166;2024-03-08T00:35:53;4.70;100.00
15630;DHT22;7914;50.842;0.166;2024-03-08T00:38:19;4.70;100.00
15630;DHT22;7914;50.842;0.166;2024-03-08T00:40:45;4.70;100.00
15630;DHT22;7914;50.842;0.166;2024-03-08T00:43:11;4.60;100.00
15630;DHT22;7914;50.842;0.166;2024-03-08T00:45:37;4.60;100.00
15630;DHT22;7914;50.842;0.166;2024-03-08T00:48:03;4.70;100.00
15630;DHT22;7914;50.842;0.166;2024-03-08T00:50:29;4.60;100.00
15630;DHT22;7914;50.842;0.166;2024-03-08T00:52:55;4.60;100.00
15630;DHT22;7914;50.842;0.166;2024-03-08T00:55:21;4.60;100.00
15630;DHT22;7914;50.842;0.166;2024-03-08T00:57:47;4.60;100.00
15630;DHT22;7914;50.842;0.166;2024-03-08T01:00:13;4.50;100.00
15630;DHT22;7914;50.842;0.166;2024-03-08T01:02:39;4.50;100.00
15630;DHT22;7914;50.842;0.166;2024-03-08T01:05:05;4.50;100.00
15630;DHT22;7914;50.842;0.166;2024-03-08T01:07:34;4.50;100.00
15630;DHT22;7914;50.842;0.166;2024-03-08T01:10:02;4.60;100.00
15630;DHT22;7914;50.842;0.166;2024-03-08T01:12:28;4.60;100.00
15630;DHT22;7914;50.842;0.166;2024-03-08T01:14:55;4.60;100.00
15630;DHT22;7914;50.842;0.166;2024-03-08T01:17:21;4.60;100.00
15630;DHT22;7914;50.842;0.166;2024-03-08T01:19:47;4.60;100.00
15630;DHT22;7914;50.842;0.166;2024-03-08T01:22:12;4.60;100.00
15630;DHT22;7914;50.842;0.166;2024-03-08T01:24:38;4.50;100.00
15630;DHT22;7914;50.842;0.166;2024-03-08T01:27:04;4.50;100.00
15630;DHT22;7914;50.842;0.166;2024-03-08T01:29:30;4.50;100.00
15630;DHT22;7914;50.842;0.166;2024-03-08T01:31:56;4.40;100.00
15630;DHT22;7914;50.842;0.166;2024-03-08T01:34:22;4.40;100.00
15630;DHT22;7914;50.842;0.166;2024-03-08T01:36:51;4.40;100.00
15630;DHT22;7914;50.842;0.166;2024-03-08T01:39:16;4.20;100.00
15630;DHT22;7914;50.842;0.166;2024-03-08T01:41:42;4.10;100.00
15630;DHT22;7914;50.842;0.166;2024-03-08T01:44:08;4.10;100.00
15630;DHT22;7914;50.842;0.166;2024-03-08T01:46:35;4.00;100.00
15630;DHT22;7914;50.842;0.166;2024-03-08T01:49:01;4.00;100.00
15630;DHT22;7914;50.842;0.166;2024-03-08T01:51:28;4.10;100.00
15630;DHT22;7914;50.842;0.166;2024-03-08T01:53:55;4.00;100.00
15630;DHT22;7914;50.842;0.166;2024-03-08T01:56:21;3.90;100.00
15630;DHT22;7914;50.842;0.166;2024-03-08T01:58:47;3.70;100.00
15630;DHT22;7914;50.842;0.166;2024-03-08T02:01:13;3.70;100.00
15630;DHT22;7914;50.842;0.166;2024-03-08T02:03:42;3.60;100.00
15630;DHT22;7914;50.842;0.166;2024-03-08T02:06:12;3.60;100.00
15630;DHT22;7914;50.842;0.166;2024-03-08T02:08:42;3.50;100.00
15630;DHT22;7914;50.842;0.166;2024-03-08T02:11:09;3.50;100.00
15630;DHT22;7914;50.842;0.166;2024-03-08T02:13:35;3.50;100.00
15630;DHT22;7914;50.842;0.166;2024-03-08T02:16:01;3.60;100.00
15630;DHT22;7914;50.842;0.166;2024-03-08T02:18:28;3.60;100.00
15630;DHT22;7914;50.842;0.166;2024-03-08T02:20:55;3.60;100.00
15630;DHT22;7914;50.842;0.166;2024-03-08T02:23:21;3.70;100.00
15630;DHT22;7914;50.842;0.166;2024-03-08T02:25:47;3.80;100.00
15630;DHT22;7914;50.842;0.166;2024-03-08T02:28:13;3.90;100.00
15630;DHT22;7914;50.842;0.166;2024-03-08T02:30:49;4.00;100.00
15630;DHT22;7914;50.842;0.166;2024-03-08T02:33:25;4.00;100.00
15630;DHT22;7914;50.842;0.166;2024-03-08T02:35:51;4.00;100.00
15630;DHT22;7914;50.842;0.166;2024-03-08T02:38:21;4.00;100.00
15630;DHT22;7914;50.842;0.166;2024-03-08T02:40:49;4.10;100.00
15630;DHT22;7914;50.842;0.166;2024-03-08T02:43:16;4.00;100.00
15630;DHT22;7914;50.842;0.166;2024-03-08T02:45:43;4.00;100.00
15630;DHT22;7914;50.842;0.166;2024-03-08T02:48:13;3.90;100.00
15630;DHT22;7914;50.842;0.166;2024-03-08T02:50:39;4.00;100.00
15630;DHT22;7914;50.842;0.166;2024-03-08T02:53:14;3.90;100.00
15630;DHT22;7914;50.842;0.166;2024-03-08T02:55:40;3.90;100.00
15630;DHT22;7914;50.842;0.166;2024-03-08T02:58:07;3.90;100.00
15630;DHT22;7914;50.842;0.166;2024-03-08T03:00:39;3.80;100.00
15630;DHT22;7914;50.842;0.166;2024-03-08T03:03:17;3.80;100.00
15630;DHT22;7914;50.842;0.166;2024-03-08T03:05:43;3.90;100.00
15630;DHT22;7914;50.842;0.166;2024-03-08T03:08:10;4.00;100.00
15630;DHT22;7914;50.842;0.166;2024-03-08T03:10:37;4.00;100.00
15630;DHT22;7914;50.842;0.166;2024-03-08T03:13:03;4.00;100.00
15630;DHT22;7914;50.842;0.166;2024-03-08T03:15:30;4.10;100.00
15630;DHT22;7914;50.842;0.166;2024-03-08T03:17:55;4.10;100.00
15630;DHT22;7914;50.842;0.166;2024-03-08T03:20:27;4.20;100.00
15630;DHT22;7914;50.842;0.166;2024-03-08T03:22:58;4.10;100.00
15630;DHT22;7914;50.842;0.166;2024-03-08T03:25:26;4.20;100.00
15630;DHT22;7914;50.842;0.166;2024-03-08T03:27:59;4.10;100.00
15630;DHT22;7914;50.842;0.166;2024-03-08T03:30:26;4.20;100.00
15630;DHT22;7914;50.842;0.166;2024-03-08T03:32:59;4.20;100.00
15630;DHT22;7914;50.842;0.166;2024-03-08T03:35:26;4.20;100.00
15630;DHT22;7914;50.842;0.166;2024-03-08T03:37:52;4.20;100.00
15630;DHT22;7914;50.842;0.166;2024-03-08T03:40:37;4.30;100.00
15630;DHT22;7914;50.842;0.166;2024-03-08T03:46:44;4.30;100.00
15630;DHT22;7914;50.842;0.166;2024-03-08T03:49:09;4.30;100.00
15630;DHT22;7914;50.842;0.166;2024-03-08T03:51:35;4.30;100.00
15630;DHT22;7914;50.842;0.166;2024-03-08T03:54:01;4.30;100.00
15630;DHT22;7914;50.842;0.166;2024-03-08T03:56:29;4.30;100.00
15630;DHT22;7914;50.842;0.166;2024-03-08T03:58:56;4.30;100.00
15630;DHT22;7914;50.842;0.166;2024-03-08T04:01:22;4.20;100.00
15630;DHT22;7914;50.842;0.166;2024-03-08T04:03:47;4.20;100.00
15630;DHT22;7914;50.842;0.166;2024-03-08T04:06:13;4.20;100.00
15630;DHT22;7914;50.842;0.166;2024-03-08T04:08:40;4.20;100.00
15630;DHT22;7914;50.842;0.166;2024-03-08T04:11:06;4.20;100.00
15630;DHT22;7914;50.842;0.166;2024-03-08T04:13:32;4.20;100.00
15630;DHT22;7914;50.842;0.166;2024-03-08T04:15:58;4.20;100.00
15630;DHT22;7914;50.842;0.166;2024-03-08T04:18:24;4.30;100.00
15630;DHT22;7914;50.842;0.166;2024-03-08T04:20:50;4.30;100.00
15630;DHT22;7914;50.842;0.166;2024-03-08T04:23:25;4.20;100.00
15630;DHT22;7914;50.842;0.166;2024-03-08T04:25:50;4.20;100.00
15630;DHT22;7914;50.842;0.166;2024-03-08T04:28:16;4.20;100.00
15630;DHT22;7914;50.842;0.166;2024-03-08T04:30:42;4.20;100.00
15630;DHT22;7914;50.842;0.166;2024-03-08T04:33:08;4.20;100.00
15630;DHT22;7914;50.842;0.166;2024-03-08T04:35:34;4.10;100.00
15630;DHT22;7914;50.842;0.166;2024-03-08T04:37:59;4.20;100.00
15630;DHT22;7914;50.842;0.166;2024-03-08T04:40:25;4.10;100.00
15630;DHT22;7914;50.842;0.166;2024-03-08T04:42:52;4.10;100.00
15630;DHT22;7914;50.842;0.166;2024-03-08T04:45:29;4.10;100.00
15630;DHT22;7914;50.842;0.166;2024-03-08T04:47:55;4.10;100.00
15630;DHT22;7914;50.842;0.166;2024-03-08T04:50:23;4.10;100.00
15630;DHT22;7914;50.842;0.166;2024-03-08T04:52:49;4.10;100.00
15630;DHT22;7914;50.842;0.166;2024-03-08T04:55:14;4.10;100.00
15630;DHT22;7914;50.842;0.166;2024-03-08T04:57:40;4.10;100.00
15630;DHT22;7914;50.842;0.166;2024-03-08T05:00:08;4.10;100.00
15630;DHT22;7914;50.842;0.166;2024-03-08T05:02:37;4.10;100.00
15630;DHT22;7914;50.842;0.166;2024-03-08T05:05:05;4.10;100.00
15630;DHT22;7914;50.842;0.166;2024-03-08T05:07:37;4.00;100.00
15630;DHT22;7914;50.842;0.166;2024-03-08T05:10:03;4.00;100.00
15630;DHT22;7914;50.842;0.166;2024-03-08T05:12:29;4.10;100.00
15630;DHT22;7914;50.842;0.166;2024-03-08T05:14:54;4.10;100.00
15630;DHT22;7914;50.842;0.166;2024-03-08T05:17:20;4.10;100.00
15630;DHT22;7914;50.842;0.166;2024-03-08T05:19:46;4.10;100.00
15630;DHT22;7914;50.842;0.166;2024-03-08T05:22:12;4.00;100.00
15630;DHT22;7914;50.842;0.166;2024-03-08T05:24:39;4.00;100.00
15630;DHT22;7914;50.842;0.166;2024-03-08T05:27:04;4.00;100.00
15630;DHT22;7914;50.842;0.166;2024-03-08T05:29:30;4.00;100.00
15630;DHT22;7914;50.842;0.166;2024-03-08T05:31:56;4.00;100.00
15630;DHT22;7914;50.842;0.166;2024-03-08T05:34:23;4.00;100.00
15630;DHT22;7914;50.842;0.166;2024-03-08T05:36:49;4.00;100.00
15630;DHT22;7914;50.842;0.166;2024-03-08T05:39:16;4.10;100.00
15630;DHT22;7914;50.842;0.166;2024-03-08T05:41:43;4.00;100.00
15630;DHT22;7914;50.842;0.166;2024-03-08T05:44:10;4.00;100.00
15630;DHT22;7914;50.842;0.166;2024-03-08T05:46:36;4.00;100.00
15630;DHT22;7914;50.842;0.166;2024-03-08T05:49:03;4.00;100.00
15630;DHT22;7914;50.842;0.166;2024-03-08T05:51:35;4.00;100.00
15630;DHT22;7914;50.842;0.166;2024-03-08T05:54:02;4.00;100.00
15630;DHT22;7914;50.842;0.166;2024-03-08T05:56:37;4.00;100.00
15630;DHT22;7914;50.842;0.166;2024-03-08T05:59:03;4.00;100.00
15630;DHT22;7914;50.842;0.166;2024-03-08T06:01:29;3.90;100.00
15630;DHT22;7914;50.842;0.166;2024-03-08T06:03:55;3.90;100.00
15630;DHT22;7914;50.842;0.166;2024-03-08T06:06:24;3.80;100.00
15630;DHT22;7914;50.842;0.166;2024-03-08T06:08:50;3.90;100.00
15630;DHT22;7914;50.842;0.166;2024-03-08T06:11:17;4.00;100.00
15630;DHT22;7914;50.842;0.166;2024-03-08T06:13:43;4.00;100.00
15630;DHT22;7914;50.842;0.166;2024-03-08T06:16:09;4.00;100.00
15630;DHT22;7914;50.842;0.166;2024-03-08T06:18:35;4.00;100.00
15630;DHT22;7914;50.842;0.166;2024-03-08T06:21:08;3.90;100.00
15630;DHT22;7914;50.842;0.166;2024-03-08T06:23:38;3.90;100.00
15630;DHT22;7914;50.842;0.166;2024-03-08T06:26:04;3.90;100.00
15630;DHT22;7914;50.842;0.166;2024-03-08T06:28:30;3.90;100.00
15630;DHT22;7914;50.842;0.166;2024-03-08T06:31:01;3.90;100.00
15630;DHT22;7914;50.842;0.166;2024-03-08T06:33:28;3.90;100.00
15630;DHT22;7914;50.842;0.166;2024-03-08T06:35:56;3.90;100.00
15630;DHT22;7914;50.842;0.166;2024-03-08T06:38:25;4.00;100.00
15630;DHT22;7914;50.842;0.166;2024-03-08T06:40:51;3.90;100.00
15630;DHT22;7914;50.842;0.166;2024-03-08T06:43:17;3.90;100.00
15630;DHT22;7914;50.842;0.166;2024-03-08T06:46:06;4.00;100.00
15630;DHT22;7914;50.842;0.166;2024-03-08T06:48:31;4.00;100.00
15630;DHT22;7914;50.842;0.166;2024-03-08T06:50:57;4.10;100.00
15630;DHT22;7914;50.842;0.166;2024-03-08T06:53:23;4.10;100.00
15630;DHT22;7914;50.842;0.166;2024-03-08T06:55:50;4.10;100.00
15630;DHT22;7914;50.842;0.166;2024-03-08T06:58:20;4.10;100.00
15630;DHT22;7914;50.842;0.166;2024-03-08T07:00:47;4.10;100.00
15630;DHT22;7914;50.842;0.166;2024-03-08T07:03:35;4.20;100.00
15630;DHT22;7914;50.842;0.166;2024-03-08T07:06:07;4.20;100.00
15630;DHT22;7914;50.842;0.166;2024-03-08T07:08:36;4.20;100.00
15630;DHT22;7914;50.842;0.166;2024-03-08T07:11:02;4.30;100.00
15630;DHT22;7914;50.842;0.166;2024-03-08T07:13:29;4.30;100.00
15630;DHT22;7914;50.842;0.166;2024-03-08T07:15:55;4.40;100.00
15630;DHT22;7914;50.842;0.166;2024-03-08T07:18:21;4.50;100.00
15630;DHT22;7914;50.842;0.166;2024-03-08T07:20:47;4.50;100.00
15630;DHT22;7914;50.842;0.166;2024-03-08T07:23:14;4.60;100.00
15630;DHT22;7914;50.842;0.166;2024-03-08T07:26:00;4.60;100.00
15630;DHT22;7914;50.842;0.166;2024-03-08T07:28:26;4.70;100.00
15630;DHT22;7914;50.842;0.166;2024-03-08T07:30:53;4.70;100.00
15630;DHT22;7914;50.842;0.166;2024-03-08T07:33:33;4.80;100.00
15630;DHT22;7914;50.842;0.166;2024-03-08T07:35:59;4.80;100.00
15630;DHT22;7914;50.842;0.166;2024-03-08T07:38:25;4.80;100.00
15630;DHT22;7914;50.842;0.166;2024-03-08T07:40:51;4.90;100.00
15630;DHT22;7914;50.842;0.166;2024-03-08T07:43:16;4.90;100.00
15630;DHT22;7914;50.842;0.166;2024-03-08T07:45:42;4.90;100.00
15630;DHT22;7914;50.842;0.166;2024-03-08T07:48:08;5.00;100.00
15630;DHT22;7914;50.842;0.166;2024-03-08T07:50:37;5.00;100.00
15630;DHT22;7914;50.842;0.166;2024-03-08T07:53:03;5.00;100.00
15630;DHT22;7914;50.842;0.166;2024-03-08T07:55:29;5.00;100.00
15630;DHT22;7914;50.842;0.166;2024-03-08T07:57:57;5.10;100.00
15630;DHT22;7914;50.842;0.166;2024-03-08T08:00:22;5.20;100.00
15630;DHT22;7914;50.842;0.166;2024-03-08T08:03:01;5.30;100.00
15630;DHT22;7914;50.842;0.166;2024-03-08T08:05:26;5.40;100.00
15630;DHT22;7914;50.842;0.166;2024-03-08T08:07:52;5.50;100.00
15630;DHT22;7914;50.842;0.166;2024-03-08T08:10:27;5.50;100.00
15630;DHT22;7914;50.842;0.166;2024-03-08T08:12:54;5.50;100.00
15630;DHT22;7914;50.842;0.166;2024-03-08T08:15:20;5.60;100.00
15630;DHT22;7914;50.842;0.166;2024-03-08T08:17:46;5.70;100.00
15630;DHT22;7914;50.842;0.166;2024-03-08T08:20:13;5.70;100.00
15630;DHT22;7914;50.842;0.166;2024-03-08T08:22:39;5.70;100.00
15630;DHT22;7914;50.842;0.166;2024-03-08T08:25:08;5.70;100.00
15630;DHT22;7914;50.842;0.166;2024-03-08T08:27:35;5.80;100.00
15630;DHT22;7914;50.842;0.166;2024-03-08T08:30:05;5.80;100.00
15630;DHT22;7914;50.842;0.166;2024-03-08T08:32:37;6.00;100.00
15630;DHT22;7914;50.842;0.166;2024-03-08T08:35:05;6.10;100.00
15630;DHT22;7914;50.842;0.166;2024-03-08T08:37:31;6.30;100.00
15630;DHT22;7914;50.842;0.166;2024-03-08T08:39:58;6.30;100.00
15630;DHT22;7914;50.842;0.166;2024-03-08T08:42:24;6.40;100.00
15630;DHT22;7914;50.842;0.166;2024-03-08T08:44:51;6.50;100.00
15630;DHT22;7914;50.842;0.166;2024-03-08T08:47:17;6.60;100.00
15630;DHT22;7914;50.842;0.166;2024-03-08T08:49:44;6.50;100.00
15630;DHT22;7914;50.842;0.166;2024-03-08T08:52:12;6.60;100.00
15630;DHT22;7914;50.842;0.166;2024-03-08T08:54:38;6.60;100.00
15630;DHT22;7914;50.842;0.166;2024-03-08T08:57:04;6.50;100.00
15630;DHT22;7914;50.842;0.166;2024-03-08T08:59:36;6.50;100.00
15630;DHT22;7914;50.842;0.166;2024-03-08T09:02:08;6.60;100.00
15630;DHT22;7914;50.842;0.166;2024-03-08T09:04:38;6.60;100.00
15630;DHT22;7914;50.842;0.166;2024-03-08T09:07:04;6.60;100.00
15630;DHT22;7914;50.842;0.166;2024-03-08T09:09:32;6.50;100.00
15630;DHT22;7914;50.842;0.166;2024-03-08T09:11:58;6.70;100.00
15630;DHT22;7914;50.842;0.166;2024-03-08T09:14:23;6.70;100.00
15630;DHT22;7914;50.842;0.166;2024-03-08T09:16:51;6.80;100.00
15630;DHT22;7914;50.842;0.166;2024-03-08T09:19:17;6.90;100.00
15630;DHT22;7914;50.842;0.166;2024-03-08T09:21:45;7.20;100.00
15630;DHT22;7914;50.842;0.166;2024-03-08T09:24:10;7.00;100.00
15630;DHT22;7914;50.842;0.166;2024-03-08T09:26:36;7.20;100.00
15630;DHT22;7914;50.842;0.166;2024-03-08T09:29:04;7.20;100.00
15630;DHT22;7914;50.842;0.166;2024-03-08T09:31:32;7.20;100.00
15630;DHT22;7914;50.842;0.166;2024-03-08T09:33:58;7.30;100.00
15630;DHT22;7914;50.842;0.166;2024-03-08T09:36:23;7.30;100.00
15630;DHT22;7914;50.842;0.166;2024-03-08T09:38:49;7.30;100.00
15630;DHT22;7914;50.842;0.166;2024-03-08T09:41:15;7.30;100.00
15630;DHT22;7914;50.842;0.166;2024-03-08T09:43:41;7.50;100.00
15630;DHT22;7914;50.842;0.166;2024-03-08T09:46:07;7.60;100.00
15630;DHT22;7914;50.842;0.166;2024-03-08T09:48:33;7.70;100.00
15630;DHT22;7914;50.842;0.166;2024-03-08T09:51:09;7.80;100.00
15630;DHT22;7914;50.842;0.166;2024-03-08T09:53:39;8.00;100.00
15630;DHT22;7914;50.842;0.166;2024-03-08T09:56:05;7.90;100.00
15630;DHT22;7914;50.842;0.166;2024-03-08T09:58:31;7.90;100.00
15630;DHT22;7914;50.842;0.166;2024-03-08T10:01:00;8.00;100.00
15630;DHT22;7914;50.842;0.166;2024-03-08T10:03:30;8.00;100.00
15630;DHT22;7914;50.842;0.166;2024-03-08T10:05:58;7.90;100.00
15630;DHT22;7914;50.842;0.166;2024-03-08T10:08:29;7.70;100.00
15630;DHT22;7914;50.842;0.166;2024-03-08T10:10:58;7.70;100.00
15630;DHT22;7914;50.842;0.166;2024-03-08T10:13:25;7.90;100.00
15630;DHT22;7914;50.842;0.166;2024-03-08T10:15:53;7.90;100.00
15630;DHT22;7914;50.842;0.166;2024-03-08T10:18:19;8.00;100.00
15630;DHT22;7914;50.842;0.166;2024-03-08T10:20:45;8.00;100.00
15630;DHT22;7914;50.842;0.166;2024-03-08T10:23:11;8.10;100.00
15630;DHT22;7914;50.842;0.166;2024-03-08T10:25:38;8.20;100.00
15630;DHT22;7914;50.842;0.166;2024-03-08T10:28:04;8.20;100.00
15630;DHT22;7914;50.842;0.166;2024-03-08T10:30:30;8.20;100.00
15630;DHT22;7914;50.842;0.166;2024-03-08T10:32:56;8.20;100.00
15630;DHT22;7914;50.842;0.166;2024-03-08T10:35:22;8.20;100.00
15630;DHT22;7914;50.842;0.166;2024-03-08T10:37:50;8.40;100.00
15630;DHT22;7914;50.842;0.166;2024-03-08T10:40:24;8.70;100.00
15630;DHT22;7914;50.842;0.166;2024-03-08T10:42:55;8.50;100.00
15630;DHT22;7914;50.842;0.166;2024-03-08T10:50:35;8.40;100.00
15630;DHT22;7914;50.842;0.166;2024-03-08T10:53:03;8.50;100.00
15630;DHT22;7914;50.842;0.166;2024-03-08T10:55:47;8.70;100.00
15630;DHT22;7914;50.842;0.166;2024-03-08T10:58:15;8.70;100.00
15630;DHT22;7914;50.842;0.166;2024-03-08T11:00:41;8.80;100.00
15630;DHT22;7914;50.842;0.166;2024-03-08T11:03:07;8.90;100.00
15630;DHT22;7914;50.842;0.166;2024-03-08T11:05:54;8.80;100.00
15630;DHT22;7914;50.842;0.166;2024-03-08T11:08:20;8.70;100.00
15630;DHT22;7914;50.842;0.166;2024-03-08T11:10:50;8.80;100.00
15630;DHT22;7914;50.842;0.166;2024-03-08T11:13:42;8.90;100.00
15630;DHT22;7914;50.842;0.166;2024-03-08T11:19:00;9.20;100.00
15630;DHT22;7914;50.842;0.166;2024-03-08T11:21:33;9.10;100.00
15630;DHT22;7914;50.842;0.166;2024-03-08T11:24:06;8.90;100.00
15630;DHT22;7914;50.842;0.166;2024-03-08T11:26:32;8.90;100.00
15630;DHT22;7914;50.842;0.166;2024-03-08T11:35:06;9.00;100.00
15630;DHT22;7914;50.842;0.166;2024-03-08T11:37:34;9.10;100.00
15630;DHT22;7914;50.842;0.166;2024-03-08T11:40:12;9.10;100.00
15630;DHT22;7914;50.842;0.166;2024-03-08T11:42:48;9.00;100.00
15630;DHT22;7914;50.842;0.166;2024-03-08T11:45:18;9.10;100.00
15630;DHT22;7914;50.842;0.166;2024-03-08T11:47:46;9.00;100.00
15630;DHT22;7914;50.842;0.166;2024-03-08T11:50:13;9.20;100.00
15630;DHT22;7914;50.842;0.166;2024-03-08T11:52:40;9.10;100.00
15630;DHT22;7914;50.842;0.166;2024-03-08T11:55:06;9.40;100.00
15630;DHT22;7914;50.842;0.166;2024-03-08T11:57:32;9.50;100.00
15630;DHT22;7914;50.842;0.166;2024-03-08T11:59:59;9.70;100.00
15630;DHT22;7914;50.842;0.166;2024-03-08T12:02:33;9.80;100.00
15630;DHT22;7914;50.842;0.166;2024-03-08T12:05:05;9.50;100.00
15630;DHT22;7914;50.842;0.166;2024-03-08T12:07:35;9.30;100.00
15630;DHT22;7914;50.842;0.166;2024-03-08T12:10:18;9.40;100.00
15630;DHT22;7914;50.842;0.166;2024-03-08T12:12:48;9.60;100.00
15630;DHT22;7914;50.842;0.166;2024-03-08T12:15:28;9.60;100.00
15630;DHT22;7914;50.842;0.166;2024-03-08T12:17:56;9.50;100.00
15630;DHT22;7914;50.842;0.166;2024-03-08T12:20:25;9.50;100.00
15630;DHT22;7914;50.842;0.166;2024-03-08T12:22:52;9.50;100.00
15630;DHT22;7914;50.842;0.166;2024-03-08T12:25:19;9.40;100.00
15630;DHT22;7914;50.842;0.166;2024-03-08T12:27:46;9.40;100.00
15630;DHT22;7914;50.842;0.166;2024-03-08T12:30:26;9.50;100.00
15630;DHT22;7914;50.842;0.166;2024-03-08T12:32:58;9.50;100.00
15630;DHT22;7914;50.842;0.166;2024-03-08T12:35:25;9.40;100.00
15630;DHT22;7914;50.842;0.166;2024-03-08T12:37:58;9.40;100.00
15630;DHT22;7914;50.842;0.166;2024-03-08T12:40:32;9.40;100.00
15630;DHT22;7914;50.842;0.166;2024-03-08T12:43:01;9.60;100.00
15630;DHT22;7914;50.842;0.166;2024-03-08T12:45:27;9.80;100.00
15630;DHT22;7914;50.842;0.166;2024-03-08T12:47:54;9.70;100.00
15630;DHT22;7914;50.842;0.166;2024-03-08T12:50:21;9.60;100.00
15630;DHT22;7914;50.842;0.166;2024-03-08T12:52:47;9.60;100.00
15630;DHT22;7914;50.842;0.166;2024-03-08T12:55:14;9.60;100.00
15630;DHT22;7914;50.842;0.166;2024-03-08T12:57:42;9.60;100.00
15630;DHT22;7914;50.842;0.166;2024-03-08T13:00:08;9.50;100.00
15630;DHT22;7914;50.842;0.166;2024-03-08T13:02:39;9.60;100.00
15630;DHT22;7914;50.842;0.166;2024-03-08T13:05:06;9.30;100.00
15630;DHT22;7914;50.842;0.166;2024-03-08T13:07:35;9.30;100.00
15630;DHT22;7914;50.842;0.166;2024-03-08T13:10:03;9.50;100.00
15630;DHT22;7914;50.842;0.166;2024-03-08T13:12:30;9.90;100.00
15630;DHT22;7914;50.842;0.166;2024-03-08T13:14:55;9.90;100.00
15630;DHT22;7914;50.842;0.166;2024-03-08T13:17:22;9.70;100.00
15630;DHT22;7914;50.842;0.166;2024-03-08T13:19:48;9.80;100.00
15630;DHT22;7914;50.842;0.166;2024-03-08T13:22:13;9.90;100.00
15630;DHT22;7914;50.842;0.166;2024-03-08T13:24:44;9.80;100.00
15630;DHT22;7914;50.842;0.166;2024-03-08T13:27:11;9.70;100.00
15630;DHT22;7914;50.842;0.166;2024-03-08T13:29:53;9.60;100.00
15630;DHT22;7914;50.842;0.166;2024-03-08T13:32:19;9.50;100.00
15630;DHT22;7914;50.842;0.166;2024-03-08T13:34:49;9.50;100.00
15630;DHT22;7914;50.842;0.166;2024-03-08T13:37:16;9.50;100.00
15630;DHT22;7914;50.842;0.166;2024-03-08T13:39:42;9.30;100.00
15630;DHT22;7914;50.842;0.166;2024-03-08T13:42:15;9.40;100.00
15630;DHT22;7914;50.842;0.166;2024-03-08T13:44:48;9.50;100.00
15630;DHT22;7914;50.842;0.166;2024-03-08T13:47:18;9.30;100.00
15630;DHT22;7914;50.842;0.166;2024-03-08T13:49:44;9.20;100.00
15630;DHT22;7914;50.842;0.166;2024-03-08T13:52:10;9.20;100.00
15630;DHT22;7914;50.842;0.166;2024-03-08T13:54:37;9.20;100.00
15630;DHT22;7914;50.842;0.166;2024-03-08T13:57:04;9.30;100.00
15630;DHT22;7914;50.842;0.166;2024-03-08T13:59:31;9.30;100.00
15630;DHT22;7914;50.842;0.166;2024-03-08T14:01:59;9.30;100.00
15630;DHT22;7914;50.842;0.166;2024-03-08T14:04:25;9.20;100.00
15630;DHT22;7914;50.842;0.166;2024-03-08T14:06:52;9.10;100.00
15630;DHT22;7914;50.842;0.166;2024-03-08T14:09:23;8.90;100.00
15630;DHT22;7914;50.842;0.166;2024-03-08T14:11:53;8.80;100.00
15630;DHT22;7914;50.842;0.166;2024-03-08T14:14:22;8.80;100.00
15630;DHT22;7914;50.842;0.166;2024-03-08T14:16:51;8.80;100.00
15630;DHT22;7914;50.842;0.166;2024-03-08T14:19:23;8.90;100.00
15630;DHT22;7914;50.842;0.166;2024-03-08T14:21:48;8.80;100.00
15630;DHT22;7914;50.842;0.166;2024-03-08T14:24:15;8.70;100.00
15630;DHT22;7914;50.842;0.166;2024-03-08T14:26:42;8.60;100.00
15630;DHT22;7914;50.842;0.166;2024-03-08T14:29:08;8.60;100.00
15630;DHT22;7914;50.842;0.166;2024-03-08T14:31:36;8.50;100.00
15630;DHT22;7914;50.842;0.166;2024-03-08T14:34:02;8.60;100.00
15630;DHT22;7914;50.842;0.166;2024-03-08T14:36:29;8.70;100.00
15630;DHT22;7914;50.842;0.166;2024-03-08T14:38:55;8.70;100.00
15630;DHT22;7914;50.842;0.166;2024-03-08T14:41:21;8.80;100.00
15630;DHT22;7914;50.842;0.166;2024-03-08T14:43:48;8.90;100.00
15630;DHT22;7914;50.842;0.166;2024-03-08T14:46:14;9.00;100.00
15630;DHT22;7914;50.842;0.166;2024-03-08T14:48:43;9.20;100.00
15630;DHT22;7914;50.842;0.166;2024-03-08T14:51:10;9.00;100.00
15630;DHT22;7914;50.842;0.166;2024-03-08T14:53:36;9.00;100.00
15630;DHT22;7914;50.842;0.166;2024-03-08T14:56:07;9.00;100.00
15630;DHT22;7914;50.842;0.166;2024-03-08T14:58:34;9.00;100.00
15630;DHT22;7914;50.842;0.166;2024-03-08T15:00:59;8.90;100.00
15630;DHT22;7914;50.842;0.166;2024-03-08T15:03:27;9.00;100.00
15630;DHT22;7914;50.842;0.166;2024-03-08T15:05:54;9.00;100.00
15630;DHT22;7914;50.842;0.166;2024-03-08T15:08:21;8.90;100.00
15630;DHT22;7914;50.842;0.166;2024-03-08T15:10:49;8.80;100.00
15630;DHT22;7914;50.842;0.166;2024-03-08T15:13:24;8.80;100.00
15630;DHT22;7914;50.842;0.166;2024-03-08T15:15:59;8.70;100.00
15630;DHT22;7914;50.842;0.166;2024-03-08T15:18:25;8.60;100.00
15630;DHT22;7914;50.842;0.166;2024-03-08T15:20:52;8.70;100.00
15630;DHT22;7914;50.842;0.166;2024-03-08T15:23:18;8.70;100.00
15630;DHT22;7914;50.842;0.166;2024-03-08T15:25:46;8.60;100.00
15630;DHT22;7914;50.842;0.166;2024-03-08T15:28:15;8.40;100.00
15630;DHT22;7914;50.842;0.166;2024-03-08T15:30:43;8.40;100.00
15630;DHT22;7914;50.842;0.166;2024-03-08T15:33:15;8.40;100.00
15630;DHT22;7914;50.842;0.166;2024-03-08T15:35:52;8.40;100.00
15630;DHT22;7914;50.842;0.166;2024-03-08T15:38:25;8.30;100.00
15630;DHT22;7914;50.842;0.166;2024-03-08T15:40:54;8.30;100.00
15630;DHT22;7914;50.842;0.166;2024-03-08T15:43:21;8.30;100.00
15630;DHT22;7914;50.842;0.166;2024-03-08T15:45:48;8.40;100.00
15630;DHT22;7914;50.842;0.166;2024-03-08T15:48:14;8.30;100.00
15630;DHT22;7914;50.842;0.166;2024-03-08T15:50:42;8.30;100.00
15630;DHT22;7914;50.842;0.166;2024-03-08T15:53:08;8.30;100.00
15630;DHT22;7914;50.842;0.166;2024-03-08T15:55:37;8.40;100.00
15630;DHT22;7914;50.842;0.166;2024-03-08T15:58:06;8.40;100.00
15630;DHT22;7914;50.842;0.166;2024-03-08T16:00:32;8.30;100.00
15630;DHT22;7914;50.842;0.166;2024-03-08T16:03:03;8.30;100.00
15630;DHT22;7914;50.842;0.166;2024-03-08T16:05:35;8.30;100.00
15630;DHT22;7914;50.842;0.166;2024-03-08T16:08:02;8.30;100.00